createdAt,value
2023-04-16T00:00:36.834Z,7.54
2023-04-16T00:03:04.389Z,7.58
2023-04-16T00:05:32.322Z,7.58
2023-04-16T00:07:59.067Z,7.59
2023-04-16T00:10:26.533Z,7.63
2023-04-16T00:12:53.504Z,7.66
2023-04-16T00:15:20.735Z,7.69
2023-04-16T00:17:48.301Z,7.71
2023-04-16T00:20:15.983Z,7.75
2023-04-16T00:22:43.529Z,7.74
2023-04-16T00:25:13.725Z,7.74
2023-04-16T00:27:41.309Z,7.80
2023-04-16T00:30:08.981Z,7.80
2023-04-16T00:32:37.347Z,7.83
2023-04-16T00:35:04.965Z,7.86
2023-04-16T00:37:33.941Z,7.86
2023-04-16T00:40:01.545Z,7.83
2023-04-16T00:42:28.643Z,7.86
2023-04-16T00:44:55.976Z,7.84
2023-04-16T00:47:26.093Z,7.83
2023-04-16T00:49:53.455Z,7.81
2023-04-16T00:52:21.670Z,7.80
2023-04-16T00:54:48.981Z,7.82
2023-04-16T00:57:16.811Z,7.81
2023-04-16T00:59:44.340Z,7.82
2023-04-16T01:02:12.896Z,7.77
2023-04-16T01:04:40.435Z,7.79
2023-04-16T01:07:07.829Z,7.78
2023-04-16T01:09:34.836Z,7.79
2023-04-16T01:12:03.583Z,7.81
2023-04-16T01:14:36.589Z,7.77
2023-04-16T01:17:04.422Z,7.78
2023-04-16T01:19:32.424Z,7.72
2023-04-16T01:21:59.534Z,7.76
2023-04-16T01:24:26.787Z,7.76
2023-04-16T01:26:54.130Z,7.76
2023-04-16T01:29:21.222Z,7.74
2023-04-16T01:31:50.340Z,7.74
2023-04-16T01:34:37.919Z,7.72
2023-04-16T01:37:05.610Z,7.66
2023-04-16T01:39:32.646Z,7.64
2023-04-16T01:41:59.858Z,7.61
2023-04-16T01:44:28.177Z,7.54
2023-04-16T01:46:55.606Z,7.60
2023-04-16T01:49:23.939Z,7.58
2023-04-16T01:51:51.486Z,7.58
2023-04-16T01:54:18.409Z,7.55
2023-04-16T01:56:45.526Z,7.55
2023-04-16T01:59:12.503Z,7.57
2023-04-16T02:01:44.994Z,7.59
2023-04-16T02:04:12.801Z,7.55
2023-04-16T02:06:40.421Z,7.58
2023-04-16T02:09:07.826Z,7.52
2023-04-16T02:11:36.010Z,7.59
2023-04-16T02:14:03.809Z,7.60
2023-04-16T02:16:31.321Z,7.58
2023-04-16T02:19:18.666Z,7.59
2023-04-16T02:21:46.589Z,7.60
2023-04-16T02:24:14.323Z,7.63
2023-04-16T02:26:42.949Z,7.60
2023-04-16T02:29:15.104Z,7.63
2023-04-16T02:31:46.962Z,7.60
2023-04-16T02:34:15.012Z,7.59
2023-04-16T02:36:42.363Z,7.59
2023-04-16T02:39:10.240Z,7.56
2023-04-16T02:41:39.367Z,7.59
2023-04-16T02:44:09.801Z,7.61
2023-04-16T02:46:37.080Z,7.61
2023-04-16T02:49:04.057Z,7.63
2023-04-16T02:51:33.537Z,7.68
2023-04-16T02:54:01.134Z,7.62
2023-04-16T02:56:28.576Z,7.64
2023-04-16T02:58:56.202Z,7.72
2023-04-16T03:01:24.824Z,7.71
2023-04-16T03:03:56.543Z,7.71
2023-04-16T03:06:27.537Z,7.69
2023-04-16T03:08:56.597Z,7.75
2023-04-16T03:11:23.964Z,7.76
2023-04-16T03:13:51.176Z,7.79
2023-04-16T03:16:19.505Z,7.80
2023-04-16T03:18:49.426Z,7.81
2023-04-16T03:21:18.584Z,7.88
2023-04-16T03:23:49.223Z,7.85
2023-04-16T03:26:18.963Z,7.88
2023-04-16T03:28:49.133Z,7.91
2023-04-16T03:31:18.787Z,7.93
2023-04-16T03:33:49.612Z,7.92
2023-04-16T03:36:20.411Z,7.97
2023-04-16T03:38:49.340Z,7.97
2023-04-16T03:41:18.479Z,7.95
2023-04-16T03:43:47.144Z,7.98
2023-04-16T03:46:14.979Z,7.98
2023-04-16T03:48:42.745Z,8.03
2023-04-16T03:51:09.942Z,8.03
2023-04-16T03:53:37.305Z,8.07
2023-04-16T03:56:06.887Z,8.12
2023-04-16T03:58:35.623Z,8.16
2023-04-16T04:01:03.655Z,8.18
2023-04-16T04:03:32.490Z,8.19
2023-04-16T04:06:03.786Z,8.24
2023-04-16T04:08:33.412Z,8.28
2023-04-16T04:11:05.485Z,8.30
2023-04-16T04:13:35.268Z,8.34
2023-04-16T04:16:05.539Z,8.35
2023-04-16T04:18:34.421Z,8.41
2023-04-16T04:21:09.907Z,8.46
2023-04-16T04:23:41.224Z,8.48
2023-04-16T04:26:09.994Z,8.54
2023-04-16T04:28:38.010Z,8.54
2023-04-16T04:31:06.481Z,8.60
2023-04-16T04:33:34.560Z,8.57
2023-04-16T04:36:03.429Z,8.66
2023-04-16T04:38:33.980Z,8.69
2023-04-16T04:41:06.517Z,8.71
2023-04-16T04:43:36.847Z,8.73
2023-04-16T04:46:05.456Z,8.70
2023-04-16T04:48:33.669Z,8.66
2023-04-16T04:51:04.847Z,8.69
2023-04-16T04:53:34.494Z,8.69
2023-04-16T04:56:11.743Z,8.66
2023-04-16T04:58:42.140Z,8.66
2023-04-16T05:01:09.596Z,8.57
2023-04-16T05:03:37.198Z,8.50
2023-04-16T05:06:05.605Z,8.54
2023-04-16T05:08:33.979Z,8.60
2023-04-16T05:11:04.680Z,8.62
2023-04-16T05:13:31.598Z,8.70
2023-04-16T05:16:00.581Z,8.63
2023-04-16T05:18:27.957Z,8.64
2023-04-16T05:20:58.019Z,8.65
2023-04-16T05:23:25.861Z,8.68
2023-04-16T05:25:54.782Z,8.67
2023-04-16T05:28:21.818Z,8.72
2023-04-16T05:30:49.959Z,8.73
2023-04-16T05:33:19.284Z,8.86
2023-04-16T05:35:47.260Z,8.87
2023-04-16T05:38:16.592Z,8.85
2023-04-16T05:40:47.306Z,8.80
2023-04-16T05:43:16.150Z,8.87
2023-04-16T05:45:44.132Z,8.96
2023-04-16T05:48:13.015Z,8.98
2023-04-16T05:50:41.772Z,9.00
2023-04-16T05:53:09.642Z,8.98
2023-04-16T05:55:37.551Z,9.02
2023-04-16T05:58:07.263Z,9.02
2023-04-16T06:00:36.301Z,9.11
2023-04-16T06:03:05.504Z,9.16
2023-04-16T06:05:36.175Z,9.19
2023-04-16T06:08:04.551Z,9.18
2023-04-16T06:10:32.744Z,9.20
2023-04-16T06:13:05.409Z,9.26
2023-04-16T06:15:33.624Z,9.29
2023-04-16T06:18:03.568Z,9.36
2023-04-16T06:20:32.469Z,9.47
2023-04-16T06:23:02.596Z,9.58
2023-04-16T06:25:31.653Z,9.75
2023-04-16T06:27:59.596Z,9.84
2023-04-16T06:30:27.821Z,9.96
2023-04-16T06:32:56.016Z,10.15
2023-04-16T06:35:25.010Z,10.34
2023-04-16T06:37:53.932Z,10.52
2023-04-16T06:40:22.095Z,10.74
2023-04-16T06:42:50.623Z,10.99
2023-04-16T06:45:20.220Z,11.22
2023-04-16T06:47:48.707Z,11.46
2023-04-16T06:50:16.849Z,11.66
2023-04-16T06:52:46.277Z,11.80
2023-04-16T06:55:13.436Z,12.01
2023-04-16T06:57:42.467Z,12.00
2023-04-16T07:00:12.588Z,12.04
2023-04-16T07:02:40.003Z,12.17
2023-04-16T07:05:09.368Z,12.33
2023-04-16T07:07:38.816Z,12.37
2023-04-16T07:10:07.830Z,12.38
2023-04-16T07:12:36.220Z,12.43
2023-04-16T07:15:03.722Z,12.38
2023-04-16T07:17:32.617Z,12.32
2023-04-16T07:20:04.680Z,12.32
2023-04-16T07:22:34.286Z,12.39
2023-04-16T07:25:02.581Z,12.41
2023-04-16T07:27:33.025Z,12.55
2023-04-16T07:30:02.410Z,12.57
2023-04-16T07:32:33.595Z,12.67
2023-04-16T07:35:02.573Z,12.87
2023-04-16T07:37:34.861Z,13.00
2023-04-16T07:40:03.288Z,13.26
2023-04-16T07:42:31.389Z,13.29
2023-04-16T07:45:00.848Z,13.40
2023-04-16T07:47:30.180Z,13.47
2023-04-16T07:49:59.497Z,13.70
2023-04-16T07:52:28.376Z,13.88
2023-04-16T07:54:55.795Z,14.07
2023-04-16T07:57:25.057Z,14.30
2023-04-16T07:59:53.399Z,14.69
2023-04-16T08:02:25.287Z,15.16
2023-04-16T08:04:54.597Z,15.58
2023-04-16T08:07:22.551Z,15.65
2023-04-16T08:09:54.423Z,15.86
2023-04-16T08:12:23.089Z,15.98
2023-04-16T08:14:52.921Z,15.96
2023-04-16T08:17:21.170Z,15.87
2023-04-16T08:19:49.907Z,16.02
2023-04-16T08:22:18.120Z,15.98
2023-04-16T08:24:48.093Z,15.78
2023-04-16T08:27:19.762Z,15.78
2023-04-16T08:29:50.582Z,15.77
2023-04-16T08:35:02.172Z,15.75
2023-04-16T08:37:30.729Z,15.68
2023-04-16T08:40:00.393Z,15.94
2023-04-16T08:42:55.621Z,16.15
2023-04-16T08:45:30.032Z,16.31
2023-04-16T08:48:01.155Z,16.23
2023-04-16T08:50:31.979Z,16.19
2023-04-16T08:53:06.720Z,16.04
2023-04-16T08:55:41.454Z,16.06
2023-04-16T08:58:24.100Z,16.12
2023-04-16T09:00:54.491Z,16.22
2023-04-16T09:03:23.865Z,16.23
2023-04-16T09:06:01.136Z,16.29
2023-04-16T09:08:31.966Z,16.10
2023-04-16T09:11:00.680Z,16.05
2023-04-16T09:13:30.675Z,16.08
2023-04-16T09:16:01.391Z,16.00
2023-04-16T09:18:29.588Z,15.91
2023-04-16T09:20:58.607Z,15.69
2023-04-16T09:23:26.649Z,15.69
2023-04-16T09:25:58.880Z,15.73
2023-04-16T09:28:48.389Z,15.63
2023-04-16T09:31:22.252Z,15.69
2023-04-16T09:34:08.938Z,15.78
2023-04-16T09:36:38.156Z,15.67
2023-04-16T09:39:06.626Z,15.56
2023-04-16T09:41:40.696Z,15.51
2023-04-16T09:44:08.966Z,15.49
2023-04-16T09:46:45.264Z,15.53
2023-04-16T09:49:22.921Z,15.60
2023-04-16T09:51:53.539Z,15.53
2023-04-16T09:54:21.861Z,15.52
2023-04-16T09:56:50.023Z,15.43
2023-04-16T09:59:20.057Z,15.32
2023-04-16T10:01:47.505Z,15.20
2023-04-16T10:04:18.184Z,15.08
2023-04-16T10:07:04.790Z,14.98
2023-04-16T10:09:37.982Z,14.78
2023-04-16T10:12:09.266Z,14.58
2023-04-16T10:14:40.323Z,14.26
2023-04-16T10:17:11.889Z,14.22
2023-04-16T10:19:39.750Z,14.21
2023-04-16T10:22:07.303Z,14.29
2023-04-16T10:24:38.170Z,14.41
2023-04-16T10:27:05.895Z,14.47
2023-04-16T10:29:35.007Z,14.59
2023-04-16T10:32:04.205Z,14.65
2023-04-16T10:34:32.488Z,14.71
2023-04-16T10:36:59.894Z,14.70
2023-04-16T10:39:30.039Z,14.70
2023-04-16T10:42:18.898Z,14.75
2023-04-16T10:44:47.486Z,14.76
2023-04-16T10:47:14.796Z,14.58
2023-04-16T10:49:44.196Z,14.46
2023-04-16T10:52:18.338Z,14.42
2023-04-16T10:54:49.190Z,14.25
2023-04-16T10:57:18.802Z,14.17
2023-04-16T10:59:49.828Z,14.10
2023-04-16T11:02:18.776Z,13.88
2023-04-16T11:04:50.354Z,13.78
2023-04-16T11:07:34.510Z,13.82
2023-04-16T11:10:07.737Z,13.78
2023-04-16T11:12:42.458Z,13.66
2023-04-16T11:15:31.556Z,13.64
2023-04-16T11:18:00.597Z,13.37
2023-04-16T11:20:28.920Z,13.26
2023-04-16T11:22:57.994Z,13.09
2023-04-16T11:25:25.864Z,12.92
2023-04-16T11:27:55.432Z,12.79
2023-04-16T11:30:34.159Z,12.66
2023-04-16T11:33:14.666Z,12.50
2023-04-16T11:35:44.187Z,12.26
2023-04-16T11:38:11.248Z,12.20
2023-04-16T11:40:40.064Z,12.13
2023-04-16T11:43:16.642Z,12.07
2023-04-16T11:46:07.469Z,12.02
2023-04-16T11:48:49.848Z,12.02
2023-04-16T11:51:18.466Z,11.99
2023-04-16T11:53:51.077Z,12.07
2023-04-16T11:56:29.549Z,12.09
2023-04-16T11:59:12.533Z,12.10
2023-04-16T12:01:43.463Z,12.06
2023-04-16T12:04:13.920Z,12.09
2023-04-16T12:06:41.744Z,12.09
2023-04-16T12:09:28.286Z,12.06
2023-04-16T12:11:57.262Z,12.05
2023-04-16T12:14:25.214Z,12.13
2023-04-16T12:16:52.959Z,12.15
2023-04-16T12:19:21.306Z,12.17
2023-04-16T12:21:50.860Z,12.16
2023-04-16T12:24:24.605Z,12.22
2023-04-16T12:26:56.319Z,12.34
2023-04-16T12:29:28.683Z,12.33
2023-04-16T12:31:56.045Z,12.36
2023-04-16T12:34:25.569Z,12.27
2023-04-16T12:37:10.892Z,12.29
2023-04-16T12:39:38.584Z,12.30
2023-04-16T12:42:10.519Z,12.29
2023-04-16T12:44:38.321Z,12.33
2023-04-16T12:47:05.903Z,12.28
2023-04-16T12:49:32.897Z,12.32
2023-04-16T12:52:01.150Z,12.26
2023-04-16T12:54:32.038Z,12.28
2023-04-16T12:56:58.912Z,12.25
2023-04-16T12:59:26.713Z,12.14
2023-04-16T13:01:54.999Z,12.22
2023-04-16T13:04:25.479Z,12.21
2023-04-16T13:06:53.898Z,12.25
2023-04-16T13:09:21.039Z,12.26
2023-04-16T13:11:49.091Z,12.28
2023-04-16T13:14:16.631Z,12.28
2023-04-16T13:16:43.791Z,12.23
2023-04-16T13:19:11.645Z,12.22
2023-04-16T13:21:39.431Z,12.12
2023-04-16T13:24:06.887Z,12.13
2023-04-16T13:26:34.147Z,12.16
2023-04-16T13:29:01.858Z,12.11
2023-04-16T13:31:29.000Z,12.00
2023-04-16T13:33:57.078Z,11.99
2023-04-16T13:36:26.334Z,11.95
2023-04-16T13:38:55.204Z,11.88
2023-04-16T13:41:23.683Z,11.80
2023-04-16T13:43:51.552Z,11.66
2023-04-16T13:46:19.668Z,11.74
2023-04-16T13:48:47.543Z,11.73
2023-04-16T13:51:16.455Z,11.85
2023-04-16T13:53:43.986Z,12.02
2023-04-16T13:56:11.999Z,12.20
2023-04-16T13:58:39.872Z,12.30
2023-04-16T14:01:07.615Z,12.31
2023-04-16T14:03:37.951Z,12.27
2023-04-16T14:06:05.886Z,12.19
2023-04-16T14:08:32.881Z,12.01
2023-04-16T14:10:59.954Z,11.96
2023-04-16T14:13:27.492Z,11.92
2023-04-16T14:15:56.105Z,11.78
2023-04-16T14:18:23.249Z,11.75
2023-04-16T14:20:50.491Z,11.71
2023-04-16T14:23:17.700Z,11.63
2023-04-16T14:25:45.587Z,11.64
2023-04-16T14:28:15.536Z,11.63
2023-04-16T14:30:42.753Z,11.57
2023-04-16T14:33:10.114Z,11.44
2023-04-16T14:35:37.328Z,11.43
2023-04-16T14:38:04.886Z,11.41
2023-04-16T14:40:31.873Z,11.32
2023-04-16T14:42:59.181Z,11.34
2023-04-16T14:45:29.635Z,11.32
2023-04-16T14:48:03.513Z,11.25
2023-04-16T14:50:31.431Z,11.17
2023-04-16T14:52:58.499Z,11.19
2023-04-16T14:55:26.736Z,11.13
2023-04-16T14:57:54.320Z,11.08
2023-04-16T15:00:21.916Z,11.07
2023-04-16T15:02:49.309Z,11.07
2023-04-16T15:05:16.471Z,11.02
2023-04-16T15:07:44.560Z,11.01
2023-04-16T15:10:12.849Z,10.94
2023-04-16T15:12:40.312Z,10.88
2023-04-16T15:15:09.145Z,10.87
2023-04-16T15:17:37.016Z,10.90
2023-04-16T15:20:08.714Z,10.93
2023-04-16T15:22:36.456Z,10.90
2023-04-16T15:25:04.139Z,10.84
2023-04-16T15:27:32.511Z,10.87
2023-04-16T15:29:59.915Z,10.85
2023-04-16T15:32:28.226Z,10.76
2023-04-16T15:34:55.848Z,10.77
2023-04-16T15:37:24.299Z,10.72
2023-04-16T15:39:52.214Z,10.71
2023-04-16T15:42:19.481Z,10.65
2023-04-16T15:44:46.629Z,10.59
2023-04-16T15:47:13.734Z,10.57
2023-04-16T15:49:41.234Z,10.54
2023-04-16T15:52:09.000Z,10.46
2023-04-16T15:54:36.246Z,10.46
2023-04-16T15:57:04.044Z,10.47
2023-04-16T15:59:31.756Z,10.49
2023-04-16T16:01:59.143Z,10.42
2023-04-16T16:04:26.937Z,10.38
2023-04-16T16:06:54.781Z,10.33
2023-04-16T16:09:26.564Z,10.34
2023-04-16T16:11:56.378Z,10.35
2023-04-16T16:14:24.010Z,10.29
2023-04-16T16:16:51.527Z,10.26
2023-04-16T16:19:18.773Z,10.23
2023-04-16T16:21:45.985Z,10.21
2023-04-16T16:24:14.319Z,10.18
2023-04-16T16:26:42.175Z,10.15
2023-04-16T16:29:10.333Z,10.09
2023-04-16T16:31:38.262Z,10.09
2023-04-16T16:34:05.762Z,10.02
2023-04-16T16:36:36.802Z,10.06
2023-04-16T16:39:05.104Z,10.02
2023-04-16T16:41:32.796Z,10.01
2023-04-16T16:44:00.462Z,10.00
2023-04-16T16:46:27.632Z,9.95
2023-04-16T16:48:55.042Z,9.94
2023-04-16T16:51:22.372Z,9.93
2023-04-16T16:53:49.528Z,9.92
2023-04-16T16:56:16.856Z,9.92
2023-04-16T16:58:44.298Z,9.88
2023-04-16T17:01:12.007Z,9.90
2023-04-16T17:03:39.190Z,9.85
2023-04-16T17:06:06.968Z,9.78
2023-04-16T17:08:33.934Z,9.82
2023-04-16T17:11:04.479Z,9.78
2023-04-16T17:13:33.057Z,9.76
2023-04-16T17:16:00.157Z,9.76
2023-04-16T17:18:28.862Z,9.76
2023-04-16T17:20:55.806Z,9.74
2023-04-16T17:23:22.969Z,9.71
2023-04-16T17:25:50.038Z,9.71
2023-04-16T17:28:17.578Z,9.71
2023-04-16T17:30:45.455Z,9.70
2023-04-16T17:33:12.622Z,9.71
2023-04-16T17:35:40.909Z,9.70
2023-04-16T17:38:07.931Z,9.66
2023-04-16T17:40:34.716Z,9.70
2023-04-16T17:43:01.529Z,9.73
2023-04-16T17:45:28.594Z,9.72
2023-04-16T17:47:55.585Z,9.69
2023-04-16T17:50:22.736Z,9.69
2023-04-16T17:52:50.003Z,9.66
2023-04-16T17:55:17.295Z,9.66
2023-04-16T17:57:45.007Z,9.65
2023-04-16T18:00:12.753Z,9.68
2023-04-16T18:02:41.268Z,9.65
2023-04-16T18:05:08.831Z,9.68
2023-04-16T18:07:36.908Z,9.68
2023-04-16T18:10:04.586Z,9.67
2023-04-16T18:12:32.176Z,9.68
2023-04-16T18:14:59.658Z,9.66
2023-04-16T18:17:26.972Z,9.68
2023-04-16T18:19:54.283Z,9.66
2023-04-16T18:22:21.818Z,9.65
2023-04-16T18:24:48.921Z,9.63
2023-04-16T18:27:16.767Z,9.60
2023-04-16T18:29:45.238Z,9.63
2023-04-16T18:32:12.674Z,9.62
2023-04-16T18:34:39.708Z,9.60
2023-04-16T18:37:06.927Z,9.62
2023-04-16T18:39:34.172Z,9.61
2023-04-16T18:42:02.062Z,9.62
2023-04-16T18:44:29.521Z,9.62
2023-04-16T18:46:57.074Z,9.56
2023-04-16T18:49:24.898Z,9.52
2023-04-16T18:51:52.240Z,9.50
2023-04-16T18:54:20.571Z,9.52
2023-04-16T18:56:50.471Z,9.56
2023-04-16T18:59:17.304Z,9.50
2023-04-16T19:01:44.494Z,9.48
2023-04-16T19:04:11.920Z,9.47
2023-04-16T19:06:39.328Z,9.50
2023-04-16T19:09:07.875Z,9.46
2023-04-16T19:11:35.852Z,9.50
2023-04-16T19:14:03.609Z,9.50
2023-04-16T19:16:30.923Z,9.50
2023-04-16T19:18:58.328Z,9.52
2023-04-16T19:21:26.047Z,9.52
2023-04-16T19:23:53.016Z,9.50
2023-04-16T19:26:20.290Z,9.50
2023-04-16T19:28:47.680Z,9.50
2023-04-16T19:31:14.899Z,9.50
2023-04-16T19:33:41.979Z,9.47
2023-04-16T19:36:09.205Z,9.48
2023-04-16T19:38:36.108Z,9.48
2023-04-16T19:41:03.231Z,9.48
2023-04-16T19:43:31.164Z,9.45
2023-04-16T19:45:58.243Z,9.50
2023-04-16T19:48:25.168Z,9.49
2023-04-16T19:50:52.423Z,9.47
2023-04-16T19:53:19.310Z,9.43
2023-04-16T19:55:46.360Z,9.50
2023-04-16T19:58:14.865Z,9.50
2023-04-16T20:00:42.528Z,9.48
2023-04-16T20:03:10.248Z,9.51
2023-04-16T20:05:37.357Z,9.47
2023-04-16T20:08:04.509Z,9.45
2023-04-16T20:10:31.723Z,9.47
2023-04-16T20:12:58.729Z,9.45
2023-04-16T20:15:26.000Z,9.45
2023-04-16T20:17:55.671Z,9.47
2023-04-16T20:20:23.852Z,9.48
2023-04-16T20:22:51.087Z,9.48
2023-04-16T20:25:21.802Z,9.48
2023-04-16T20:27:48.552Z,9.49
2023-04-16T20:30:15.703Z,9.50
2023-04-16T20:32:42.902Z,9.50
2023-04-16T20:35:13.288Z,9.51
2023-04-16T20:37:42.343Z,9.50
2023-04-16T20:40:11.025Z,9.51
2023-04-16T20:42:38.180Z,9.50
2023-04-16T20:45:05.806Z,9.50
2023-04-16T20:47:35.110Z,9.51
2023-04-16T20:50:03.108Z,9.51
2023-04-16T20:52:30.371Z,9.51
2023-04-16T20:54:58.199Z,9.52
2023-04-16T20:57:25.910Z,9.52
2023-04-16T20:59:53.087Z,9.52
2023-04-16T21:02:20.848Z,9.52
2023-04-16T21:04:48.349Z,9.51
2023-04-16T21:07:15.849Z,9.51
2023-04-16T21:09:42.591Z,9.49
2023-04-16T21:12:09.786Z,9.50
2023-04-16T21:14:36.709Z,9.50
2023-04-16T21:17:03.888Z,9.48
2023-04-16T21:19:31.140Z,9.47
2023-04-16T21:21:58.271Z,9.45
2023-04-16T21:24:25.440Z,9.44
2023-04-16T21:26:52.763Z,9.33
2023-04-16T21:29:19.561Z,9.39
2023-04-16T21:31:46.846Z,9.42
2023-04-16T21:34:14.028Z,9.40
2023-04-16T21:36:41.189Z,9.35
2023-04-16T21:39:08.326Z,9.20
2023-04-16T21:41:35.140Z,9.15
2023-04-16T21:44:02.148Z,9.20
2023-04-16T21:46:29.457Z,9.20
2023-04-16T21:48:56.739Z,9.21
2023-04-16T21:51:29.521Z,9.14
2023-04-16T21:53:57.277Z,9.17
2023-04-16T21:56:27.819Z,9.20
2023-04-16T21:58:54.820Z,9.24
2023-04-16T22:01:22.225Z,9.19
2023-04-16T22:03:50.943Z,9.11
2023-04-16T22:06:18.740Z,9.05
2023-04-16T22:08:46.410Z,8.96
2023-04-16T22:11:13.386Z,8.84
2023-04-16T22:13:42.514Z,8.69
2023-04-16T22:16:11.594Z,8.69
2023-04-16T22:18:39.901Z,8.59
2023-04-16T22:21:07.120Z,8.66
2023-04-16T22:23:33.977Z,8.70
2023-04-16T22:26:02.964Z,8.49
2023-04-16T22:28:30.178Z,8.54
2023-04-16T22:30:57.651Z,8.58
2023-04-16T22:33:24.768Z,8.55
2023-04-16T22:35:53.735Z,8.55
2023-04-16T22:38:21.387Z,8.62
2023-04-16T22:40:49.162Z,8.50
2023-04-16T22:43:17.907Z,8.61
2023-04-16T22:45:46.459Z,8.52
2023-04-16T22:48:13.501Z,8.51
2023-04-16T22:50:46.198Z,8.64
2023-04-16T22:53:12.882Z,8.62
2023-04-16T22:55:40.009Z,8.62
2023-04-16T22:58:07.195Z,8.72
2023-04-16T23:00:35.501Z,8.67
2023-04-16T23:03:02.889Z,8.72
2023-04-16T23:05:30.024Z,8.78
2023-04-16T23:07:57.123Z,8.76
2023-04-16T23:10:24.334Z,8.81
2023-04-16T23:12:51.387Z,8.85
2023-04-16T23:15:18.847Z,8.85
2023-04-16T23:17:47.672Z,8.81
2023-04-16T23:20:14.918Z,8.88
2023-04-16T23:22:42.118Z,8.91
2023-04-16T23:25:10.079Z,8.80
2023-04-16T23:27:37.668Z,8.72
2023-04-16T23:30:05.572Z,8.74
2023-04-16T23:32:34.471Z,8.66
2023-04-16T23:35:01.726Z,8.63
2023-04-16T23:37:28.767Z,8.65
2023-04-16T23:39:55.965Z,8.65
2023-04-16T23:42:22.779Z,8.51
2023-04-16T23:44:49.812Z,8.46
2023-04-16T23:47:17.058Z,8.47
2023-04-16T23:49:43.928Z,8.46
2023-04-16T23:52:10.966Z,8.39
2023-04-16T23:54:38.087Z,8.48
2023-04-16T23:57:05.329Z,8.49
2023-04-16T23:59:32.387Z,8.54
